Time;durP1;ratioP1;P1;durP2;ratioP2;P2;SDS_P1;SDS_P2;PMS_P1;PMS_P2;Temp;Humidity;BMP_temperature;BMP_pressure;BME280_temperature;BME280_humidity;BME280_pressure;Samples;Min_cycle;Max_cycle;Signal;HPM_P1;HPM_P2
2024/01/14 00:01:56;;;;;;;18.60;3.63;;;;;;;;;;5065500;28;20047;-65
2024/01/14 00:04:23;;;;;;;19.40;2.25;;;;;;;;;;5069054;28;20055;-65
2024/01/14 00:06:49;;;;;;;17.00;3.30;;;;;;;;;;5068376;28;20048;-65
2024/01/14 00:09:16;;;;;;;21.40;2.53;;;;;;;;;;5068626;28;20056;-65
2024/01/14 00:11:42;;;;;;;19.30;3.33;;;;;;;;;;5069733;28;20620;-65
2024/01/14 00:14:08;;;;;;;22.23;2.77;;;;;;;;;;5069170;28;20076;-65
2024/01/14 00:16:34;;;;;;;13.53;2.40;;;;;;;;;;5069815;28;20202;-65
2024/01/14 00:19:01;;;;;;;12.33;1.97;;;;;;;;;;5069484;28;20521;-65
2024/01/14 00:21:27;;;;;;;13.63;2.63;;;;;;;;;;5068972;28;20048;-65
2024/01/14 00:23:53;;;;;;;18.07;2.40;;;;;;;;;;5070402;28;20051;-65
2024/01/14 00:26:20;;;;;;;21.83;3.43;;;;;;;;;;5070034;28;20114;-65
2024/01/14 00:28:46;;;;;;;9.43;2.60;;;;;;;;;;5065701;28;20049;-65
2024/01/14 00:31:12;;;;;;;14.47;4.20;;;;;;;;;;5032847;28;20057;-65
2024/01/14 00:33:40;;;;;;;13.37;2.10;;;;;;;;;;5030322;28;20059;-65
2024/01/14 00:36:07;;;;;;;15.87;2.20;;;;;;;;;;5029762;28;20050;-65
2024/01/14 00:38:33;;;;;;;17.17;2.57;;;;;;;;;;5029661;28;20647;-65
2024/01/14 00:40:59;;;;;;;20.13;3.80;;;;;;;;;;5047127;28;20053;-65
2024/01/14 00:43:25;;;;;;;14.20;1.90;;;;;;;;;;5049841;28;20159;-65
2024/01/14 00:45:51;;;;;;;15.27;1.70;;;;;;;;;;5045353;28;20126;-65
2024/01/14 00:48:17;;;;;;;12.97;2.33;;;;;;;;;;5047500;28;20052;-65
2024/01/14 00:50:43;;;;;;;13.23;2.63;;;;;;;;;;5050453;28;20045;-66
2024/01/14 00:53:09;;;;;;;15.13;1.93;;;;;;;;;;5045988;28;20044;-65
2024/01/14 00:55:35;;;;;;;10.53;2.07;;;;;;;;;;5045853;28;20522;-65
2024/01/14 00:58:01;;;;;;;17.80;3.10;;;;;;;;;;5039963;28;20100;-65
2024/01/14 01:00:27;;;;;;;10.93;2.10;;;;;;;;;;5039525;28;20048;-65
2024/01/14 01:02:53;;;;;;;15.10;2.53;;;;;;;;;;5037645;28;20045;-65
2024/01/14 01:05:19;;;;;;;14.90;2.10;;;;;;;;;;5043497;28;20075;-65
2024/01/14 01:07:46;;;;;;;17.40;2.60;;;;;;;;;;5041029;28;20401;-65
2024/01/14 01:10:12;;;;;;;19.60;2.43;;;;;;;;;;5040103;28;20399;-65
2024/01/14 01:12:38;;;;;;;19.27;2.23;;;;;;;;;;5044066;28;20048;-65
2024/01/14 01:15:07;;;;;;;13.50;2.53;;;;;;;;;;5044522;28;20037;-65
2024/01/14 01:17:34;;;;;;;20.13;4.10;;;;;;;;;;5035867;28;20064;-65
2024/01/14 01:20:00;;;;;;;17.27;2.60;;;;;;;;;;5038857;28;20041;-65
2024/01/14 01:22:27;;;;;;;10.53;1.90;;;;;;;;;;5034169;28;20457;-65
2024/01/14 01:24:53;;;;;;;18.47;2.60;;;;;;;;;;5037055;28;20407;-65
2024/01/14 01:27:19;;;;;;;15.47;2.17;;;;;;;;;;5037063;28;20042;-65
2024/01/14 01:29:45;;;;;;;13.83;2.33;;;;;;;;;;5039546;28;20045;-65
2024/01/14 01:32:11;;;;;;;14.90;2.47;;;;;;;;;;5036683;28;20052;-65
2024/01/14 01:34:37;;;;;;;20.20;2.13;;;;;;;;;;5036323;28;20076;-65
2024/01/14 01:37:04;;;;;;;12.83;2.23;;;;;;;;;;5041703;28;20057;-65
2024/01/14 01:39:30;;;;;;;9.80;1.97;;;;;;;;;;5047841;28;20072;-65
2024/01/14 01:41:56;;;;;;;13.20;1.93;;;;;;;;;;5049012;28;20388;-65
2024/01/14 01:44:22;;;;;;;14.00;3.40;;;;;;;;;;5048544;28;20047;-65
2024/01/14 01:46:50;;;;;;;15.67;2.40;;;;;;;;;;5048245;28;20511;-65
2024/01/14 01:49:16;;;;;;;18.17;2.23;;;;;;;;;;5048996;28;20052;-65
2024/01/14 01:51:43;;;;;;;14.23;1.60;;;;;;;;;;5047670;28;20484;-65
2024/01/14 01:54:09;;;;;;;15.47;3.10;;;;;;;;;;5048363;28;20052;-65
2024/01/14 01:56:37;;;;;;;15.00;3.30;;;;;;;;;;5048311;28;20149;-65
2024/01/14 01:59:04;;;;;;;15.43;2.20;;;;;;;;;;5049089;28;20502;-65
2024/01/14 02:01:32;;;;;;;26.33;4.00;;;;;;;;;;5048724;28;20495;-65
2024/01/14 02:03:59;;;;;;;13.60;2.00;;;;;;;;;;5049031;28;20044;-65
2024/01/14 02:06:26;;;;;;;13.33;1.67;;;;;;;;;;5048531;28;20045;-65
2024/01/14 02:08:52;;;;;;;14.43;2.10;;;;;;;;;;5048102;28;20076;-65
2024/01/14 02:11:18;;;;;;;17.27;2.97;;;;;;;;;;5048571;28;20045;-65
2024/01/14 02:13:44;;;;;;;11.33;2.83;;;;;;;;;;5048768;28;20052;-65
2024/01/14 02:16:10;;;;;;;19.53;2.63;;;;;;;;;;5048621;28;20033;-65
2024/01/14 02:18:36;;;;;;;12.93;1.93;;;;;;;;;;5048874;28;20044;-65
2024/01/14 02:21:03;;;;;;;18.23;3.33;;;;;;;;;;5048415;28;20053;-65
2024/01/14 02:23:34;;;;;;;20.10;1.90;;;;;;;;;;5048221;28;20075;-65
2024/01/14 02:26:00;;;;;;;12.73;1.80;;;;;;;;;;5048225;28;20048;-65
2024/01/14 02:28:26;;;;;;;15.37;2.67;;;;;;;;;;5048893;28;20049;-65
2024/01/14 02:30:53;;;;;;;12.13;2.10;;;;;;;;;;5048445;28;20059;-65
2024/01/14 02:33:19;;;;;;;15.17;2.87;;;;;;;;;;5049372;28;20037;-65
2024/01/14 02:35:45;;;;;;;13.07;2.20;;;;;;;;;;5048422;28;20434;-65
2024/01/14 02:38:11;;;;;;;14.20;1.50;;;;;;;;;;5048240;28;20045;-65
2024/01/14 02:40:37;;;;;;;15.43;2.27;;;;;;;;;;5048216;28;20049;-65
2024/01/14 02:43:04;;;;;;;20.63;3.93;;;;;;;;;;5048127;28;20453;-65
2024/01/14 02:45:30;;;;;;;14.63;2.60;;;;;;;;;;5048339;28;20125;-65
2024/01/14 02:47:57;;;;;;;14.00;2.80;;;;;;;;;;5047885;28;20045;-64
2024/01/14 02:50:23;;;;;;;16.00;2.53;;;;;;;;;;5048664;28;20053;-65
2024/01/14 02:52:49;;;;;;;22.17;2.60;;;;;;;;;;5048514;28;20056;-65
2024/01/14 02:55:15;;;;;;;16.60;2.37;;;;;;;;;;5047307;28;20082;-65
2024/01/14 02:57:41;;;;;;;17.80;2.50;;;;;;;;;;5047175;28;20127;-65
2024/01/14 03:00:08;;;;;;;26.10;4.20;;;;;;;;;;5046993;28;20106;-65
2024/01/14 03:02:34;;;;;;;13.77;1.90;;;;;;;;;;5047808;28;20037;-65
2024/01/14 03:05:00;;;;;;;18.70;2.23;;;;;;;;;;5046781;28;20048;-65
2024/01/14 03:07:26;;;;;;;12.53;1.97;;;;;;;;;;5053109;28;20517;-65
2024/01/14 03:09:52;;;;;;;16.10;5.03;;;;;;;;;;5070104;28;20044;-65
2024/01/14 03:12:18;;;;;;;15.07;2.27;;;;;;;;;;5071743;28;20047;-65
2024/01/14 03:14:44;;;;;;;17.13;2.07;;;;;;;;;;5071597;28;20451;-65
2024/01/14 03:17:10;;;;;;;21.53;3.20;;;;;;;;;;5071519;28;20059;-65
2024/01/14 03:19:36;;;;;;;17.13;2.17;;;;;;;;;;5059065;28;20041;-65
2024/01/14 03:22:02;;;;;;;10.03;1.97;;;;;;;;;;5050896;28;20395;-65
2024/01/14 03:24:28;;;;;;;11.03;2.50;;;;;;;;;;5051726;28;20049;-65
2024/01/14 03:26:54;;;;;;;17.50;2.83;;;;;;;;;;5050924;28;20056;-65
2024/01/14 03:29:20;;;;;;;18.33;3.17;;;;;;;;;;5050977;28;20048;-65
2024/01/14 03:31:46;;;;;;;14.93;2.30;;;;;;;;;;5050857;28;20041;-65
2024/01/14 03:34:12;;;;;;;11.90;1.97;;;;;;;;;;5050961;28;20502;-65
2024/01/14 03:36:38;;;;;;;17.53;2.07;;;;;;;;;;5051386;28;20135;-65
2024/01/14 03:39:05;;;;;;;16.83;2.10;;;;;;;;;;5051068;28;20060;-65
2024/01/14 03:41:31;;;;;;;14.93;3.47;;;;;;;;;;5057339;28;20049;-65
2024/01/14 03:43:57;;;;;;;8.80;1.90;;;;;;;;;;5070766;28;20061;-65
2024/01/14 03:46:23;;;;;;;12.80;1.73;;;;;;;;;;5060128;28;20053;-65
2024/01/14 03:48:49;;;;;;;14.13;1.87;;;;;;;;;;5050696;28;20057;-65
2024/01/14 03:51:15;;;;;;;18.83;3.93;;;;;;;;;;5051072;28;20068;-65
2024/01/14 03:53:41;;;;;;;15.43;2.07;;;;;;;;;;5050491;28;20041;-65
2024/01/14 03:56:07;;;;;;;17.60;2.00;;;;;;;;;;5050892;28;20138;-65
2024/01/14 03:58:33;;;;;;;19.63;2.47;;;;;;;;;;5057154;28;20608;-65
2024/01/14 04:00:59;;;;;;;8.30;1.50;;;;;;;;;;5060655;28;20109;-65
2024/01/14 04:03:25;;;;;;;16.27;2.37;;;;;;;;;;5050079;28;20159;-65
2024/01/14 04:05:51;;;;;;;7.93;2.10;;;;;;;;;;5039419;28;20122;-65
2024/01/14 04:08:17;;;;;;;13.80;1.87;;;;;;;;;;5032713;28;20625;-65
2024/01/14 04:10:43;;;;;;;17.73;2.07;;;;;;;;;;5043965;28;20037;-65
2024/01/14 04:13:09;;;;;;;15.03;2.07;;;;;;;;;;5039256;28;20099;-65
2024/01/14 04:15:35;;;;;;;9.90;1.53;;;;;;;;;;5049916;28;20067;-65
2024/01/14 04:18:01;;;;;;;10.87;2.67;;;;;;;;;;5049900;28;20999;-65
2024/01/14 04:20:27;;;;;;;12.43;2.10;;;;;;;;;;5049826;28;20057;-65
2024/01/14 04:22:53;;;;;;;11.90;2.63;;;;;;;;;;5049253;28;20048;-65
2024/01/14 04:25:19;;;;;;;12.30;1.20;;;;;;;;;;5049189;28;20041;-65
2024/01/14 04:27:45;;;;;;;19.27;2.60;;;;;;;;;;5048454;28;20093;-65
2024/01/14 04:30:11;;;;;;;12.93;2.07;;;;;;;;;;5048685;28;20041;-65
2024/01/14 04:32:37;;;;;;;14.53;1.53;;;;;;;;;;5043321;28;20041;-65
2024/01/14 04:35:04;;;;;;;16.03;1.43;;;;;;;;;;5036799;28;20049;-65
2024/01/14 04:37:30;;;;;;;10.67;1.77;;;;;;;;;;5049695;28;20686;-65
2024/01/14 04:39:56;;;;;;;12.43;1.83;;;;;;;;;;5047490;28;20053;-65
2024/01/14 04:42:23;;;;;;;19.53;3.00;;;;;;;;;;5049475;28;20049;-65
2024/01/14 04:44:49;;;;;;;9.67;1.83;;;;;;;;;;5033029;28;20054;-65
2024/01/14 04:47:15;;;;;;;13.37;1.63;;;;;;;;;;5029731;28;20822;-65
2024/01/14 04:49:41;;;;;;;12.47;1.60;;;;;;;;;;5029535;28;20052;-65
2024/01/14 04:52:07;;;;;;;15.77;1.57;;;;;;;;;;5045495;28;20045;-65
2024/01/14 04:54:33;;;;;;;10.57;2.33;;;;;;;;;;5048283;28;20522;-65
2024/01/14 04:56:59;;;;;;;9.93;1.83;;;;;;;;;;5048228;28;20052;-65
2024/01/14 04:59:25;;;;;;;9.17;1.80;;;;;;;;;;5048637;28;20755;-65
2024/01/14 05:01:51;;;;;;;14.53;3.23;;;;;;;;;;5048576;28;20102;-65
2024/01/14 05:04:17;;;;;;;11.50;1.70;;;;;;;;;;5048828;28;20091;-66
2024/01/14 05:06:43;;;;;;;11.60;1.57;;;;;;;;;;5048366;28;20052;-65
2024/01/14 05:09:09;;;;;;;13.97;1.87;;;;;;;;;;5049219;28;20045;-66
2024/01/14 05:11:36;;;;;;;10.30;1.70;;;;;;;;;;5049226;28;20045;-66
2024/01/14 05:14:02;;;;;;;14.77;2.00;;;;;;;;;;5049534;28;20096;-66
2024/01/14 05:16:28;;;;;;;19.13;2.30;;;;;;;;;;5049626;28;20052;-66
2024/01/14 05:18:56;;;;;;;13.23;1.63;;;;;;;;;;5048988;28;20403;-66
2024/01/14 05:21:22;;;;;;;19.83;2.47;;;;;;;;;;5049009;28;20056;-65
2024/01/14 05:23:48;;;;;;;11.07;2.43;;;;;;;;;;5049530;28;20049;-65
2024/01/14 05:26:14;;;;;;;22.80;3.07;;;;;;;;;;5049203;28;20095;-66
2024/01/14 05:28:40;;;;;;;17.13;2.27;;;;;;;;;;5049470;28;20049;-65
2024/01/14 05:31:06;;;;;;;17.00;2.17;;;;;;;;;;5048951;28;20049;-65
2024/01/14 05:33:32;;;;;;;19.97;2.97;;;;;;;;;;5048260;28;20120;-65
2024/01/14 05:35:58;;;;;;;13.33;1.83;;;;;;;;;;5048980;28;20084;-65
2024/01/14 05:38:24;;;;;;;14.83;3.07;;;;;;;;;;5048873;28;20091;-65
2024/01/14 05:40:50;;;;;;;17.03;2.77;;;;;;;;;;5057385;28;20052;-65
2024/01/14 05:43:16;;;;;;;17.50;1.90;;;;;;;;;;5069007;28;20407;-66
2024/01/14 05:45:42;;;;;;;13.77;1.97;;;;;;;;;;5068583;28;20056;-65
2024/01/14 05:48:08;;;;;;;16.57;2.33;;;;;;;;;;5064603;28;20513;-65
2024/01/14 05:50:34;;;;;;;15.40;2.70;;;;;;;;;;5048650;28;20052;-65
2024/01/14 05:53:00;;;;;;;12.57;2.47;;;;;;;;;;5048657;28;20048;-65
2024/01/14 05:55:26;;;;;;;19.87;2.57;;;;;;;;;;5049054;28;20495;-65
2024/01/14 05:57:52;;;;;;;18.70;2.90;;;;;;;;;;5048998;28;20091;-65
2024/01/14 06:00:22;;;;;;;19.50;3.07;;;;;;;;;;5048985;28;20040;-65
2024/01/14 06:02:48;;;;;;;13.97;3.07;;;;;;;;;;5048470;28;20128;-65
2024/01/14 06:05:15;;;;;;;18.17;2.03;;;;;;;;;;5048032;28;20564;-65
2024/01/14 06:07:41;;;;;;;13.97;2.23;;;;;;;;;;5048991;28;20057;-65
2024/01/14 06:10:07;;;;;;;12.80;2.30;;;;;;;;;;5048918;28;20049;-65
2024/01/14 06:12:33;;;;;;;28.47;3.33;;;;;;;;;;5048538;28;20152;-65
2024/01/14 06:14:59;;;;;;;19.23;2.43;;;;;;;;;;5047182;28;20124;-65
2024/01/14 06:17:26;;;;;;;17.40;2.10;;;;;;;;;;5048152;28;20106;-65
2024/01/14 06:19:52;;;;;;;20.27;2.80;;;;;;;;;;5046572;28;20591;-65
2024/01/14 06:22:18;;;;;;;15.47;1.80;;;;;;;;;;5047513;28;20077;-65
2024/01/14 06:24:47;;;;;;;11.70;2.13;;;;;;;;;;5048023;28;20048;-65
2024/01/14 06:27:13;;;;;;;17.47;2.50;;;;;;;;;;5047639;28;21581;-65
2024/01/14 06:29:40;;;;;;;16.43;2.00;;;;;;;;;;5047689;28;20048;-65
2024/01/14 06:32:06;;;;;;;14.13;2.80;;;;;;;;;;5048088;28;20053;-65
2024/01/14 06:34:32;;;;;;;13.53;1.87;;;;;;;;;;5047587;28;20052;-65
2024/01/14 06:36:58;;;;;;;14.00;1.67;;;;;;;;;;5047360;28;20407;-65
2024/01/14 06:39:24;;;;;;;15.30;3.23;;;;;;;;;;5047335;28;20049;-65
2024/01/14 06:41:52;;;;;;;10.77;1.97;;;;;;;;;;5047205;28;20071;-65
2024/01/14 06:44:18;;;;;;;6.27;1.50;;;;;;;;;;5049395;28;20060;-65
2024/01/14 06:46:44;;;;;;;7.57;1.63;;;;;;;;;;5052007;28;20045;-66
2024/01/14 06:49:10;;;;;;;23.37;3.70;;;;;;;;;;5063195;28;20047;-65
2024/01/14 06:51:43;;;;;;;10.40;1.73;;;;;;;;;;5071942;28;20084;-66
2024/01/14 06:54:08;;;;;;;18.42;2.80;;;;;;;;;;5041441;28;20048;-66
2024/01/14 06:56:41;;;;;;;13.67;3.03;;;;;;;;;;5050732;28;20491;-66
2024/01/14 06:59:10;;;;;;;13.90;1.48;;;;;;;;;;5051117;28;20098;-65
2024/01/14 07:01:36;;;;;;;25.97;3.13;;;;;;;;;;5051413;28;20052;-66
2024/01/14 07:04:02;;;;;;;20.53;3.17;;;;;;;;;;5051679;28;20036;-66
2024/01/14 07:06:28;;;;;;;8.80;2.00;;;;;;;;;;5065625;28;20084;-66
2024/01/14 07:08:54;;;;;;;14.53;1.50;;;;;;;;;;5071864;28;20083;-65
2024/01/14 07:11:20;;;;;;;15.00;2.80;;;;;;;;;;5068376;28;20048;-65
2024/01/14 07:13:47;;;;;;;9.07;1.60;;;;;;;;;;5050671;28;20071;-66
2024/01/14 07:16:13;;;;;;;8.93;1.30;;;;;;;;;;5051643;28;20133;-65
2024/01/14 07:18:39;;;;;;;62.87;5.47;;;;;;;;;;5051627;28;20041;-65
2024/01/14 07:21:07;;;;;;;16.53;2.30;;;;;;;;;;5050360;28;20127;-65
2024/01/14 07:23:33;;;;;;;15.27;2.37;;;;;;;;;;5065947;28;20044;-65
2024/01/14 07:26:00;;;;;;;18.50;3.00;;;;;;;;;;5064061;28;20060;-65
2024/01/14 07:28:26;;;;;;;8.30;1.50;;;;;;;;;;5049691;28;20141;-65
2024/01/14 07:30:52;;;;;;;18.97;3.77;;;;;;;;;;5050681;28;20056;-65
2024/01/14 07:33:18;;;;;;;11.33;2.13;;;;;;;;;;5050233;28;20049;-65
2024/01/14 07:35:44;;;;;;;18.63;3.10;;;;;;;;;;5051303;28;20510;-65
2024/01/14 07:38:10;;;;;;;14.13;2.37;;;;;;;;;;5042730;28;20038;-65
2024/01/14 07:40:36;;;;;;;8.63;1.97;;;;;;;;;;5066311;28;20145;-65
2024/01/14 07:43:02;;;;;;;13.53;2.60;;;;;;;;;;5071046;28;20159;-65
2024/01/14 07:45:29;;;;;;;17.20;4.47;;;;;;;;;;5071352;28;20053;-65
2024/01/14 07:47:55;;;;;;;13.40;3.17;;;;;;;;;;5071265;28;20413;-65
2024/01/14 07:50:21;;;;;;;11.03;3.20;;;;;;;;;;5070458;28;20052;-65
2024/01/14 07:52:47;;;;;;;133.57;22.00;;;;;;;;;;5071231;28;20049;-65
2024/01/14 07:55:13;;;;;;;16.00;3.90;;;;;;;;;;5050800;28;20045;-65
2024/01/14 07:57:39;;;;;;;15.80;4.00;;;;;;;;;;5051526;28;20091;-65
2024/01/14 08:00:05;;;;;;;14.20;3.83;;;;;;;;;;5050971;28;20081;-65
2024/01/14 08:02:31;;;;;;;16.77;4.33;;;;;;;;;;5050529;28;20051;-65
2024/01/14 08:04:57;;;;;;;16.03;3.80;;;;;;;;;;5050276;28;20045;-65
2024/01/14 08:07:23;;;;;;;14.10;3.70;;;;;;;;;;5050499;28;20388;-65
2024/01/14 08:09:49;;;;;;;17.07;4.70;;;;;;;;;;5050230;28;20060;-65
2024/01/14 08:12:15;;;;;;;11.93;3.83;;;;;;;;;;5049765;28;20052;-65
2024/01/14 08:14:41;;;;;;;14.67;3.90;;;;;;;;;;5051133;28;20045;-65
2024/01/14 08:17:07;;;;;;;332.50;34.67;;;;;;;;;;5049510;28;20045;-65
2024/01/14 08:19:33;;;;;;;28.27;5.03;;;;;;;;;;5049895;28;20119;-65
2024/01/14 08:21:59;;;;;;;166.40;20.60;;;;;;;;;;5048065;28;20542;-65
2024/01/14 08:24:25;;;;;;;15.33;5.17;;;;;;;;;;5049186;28;20053;-65
2024/01/14 08:26:51;;;;;;;15.57;4.70;;;;;;;;;;5048696;28;20037;-65
2024/01/14 08:29:17;;;;;;;1164.40;176.10;;;;;;;;;;5050129;28;20075;-65
2024/01/14 08:31:43;;;;;;;21.53;5.57;;;;;;;;;;5065827;28;20123;-65
2024/01/14 08:34:09;;;;;;;20.73;6.60;;;;;;;;;;5047034;28;20041;-65
2024/01/14 08:36:36;;;;;;;24.80;8.13;;;;;;;;;;5049043;28;20044;-65
2024/01/14 08:39:03;;;;;;;26.03;7.70;;;;;;;;;;5049109;28;20135;-65
2024/01/14 08:41:29;;;;;;;28.00;8.57;;;;;;;;;;5049756;28;20041;-65
2024/01/14 08:43:56;;;;;;;22.50;7.87;;;;;;;;;;5046363;28;20057;-65
2024/01/14 08:46:22;;;;;;;28.80;8.07;;;;;;;;;;5050187;28;20130;-65
2024/01/14 08:48:48;;;;;;;25.70;7.03;;;;;;;;;;5048210;28;20120;-66
2024/01/14 08:51:14;;;;;;;24.60;6.53;;;;;;;;;;5049735;28;20048;-65
2024/01/14 08:53:40;;;;;;;21.57;6.47;;;;;;;;;;5049537;28;20455;-65
2024/01/14 08:56:07;;;;;;;17.73;6.00;;;;;;;;;;5049622;28;20112;-65
2024/01/14 08:58:33;;;;;;;148.60;21.00;;;;;;;;;;5049423;28;20041;-65
2024/01/14 09:00:59;;;;;;;20.50;5.40;;;;;;;;;;5048762;28;20419;-66
2024/01/14 09:03:25;;;;;;;19.83;5.33;;;;;;;;;;5049594;28;20045;-65
2024/01/14 09:05:51;;;;;;;99.17;12.33;;;;;;;;;;5047141;28;20045;-65
2024/01/14 09:08:17;;;;;;;15.37;4.87;;;;;;;;;;5046570;28;20041;-65
2024/01/14 09:10:43;;;;;;;23.60;5.80;;;;;;;;;;5048803;28;20065;-66
2024/01/14 09:13:09;;;;;;;20.20;4.20;;;;;;;;;;5048809;28;20409;-66
2024/01/14 09:15:35;;;;;;;18.97;3.57;;;;;;;;;;5048739;28;20106;-66
2024/01/14 09:18:01;;;;;;;14.27;3.60;;;;;;;;;;5047899;28;20420;-66
2024/01/14 09:20:28;;;;;;;7.53;2.70;;;;;;;;;;5048858;28;20087;-65
2024/01/14 09:22:54;;;;;;;5.30;2.80;;;;;;;;;;5049082;28;20049;-65
2024/01/14 09:25:20;;;;;;;12.07;3.87;;;;;;;;;;5048379;28;20495;-65
2024/01/14 09:27:46;;;;;;;16.60;5.43;;;;;;;;;;5048747;28;20053;-65
2024/01/14 09:30:13;;;;;;;22.90;7.07;;;;;;;;;;5048803;28;20045;-65
2024/01/14 09:32:39;;;;;;;26.17;8.70;;;;;;;;;;5048943;28;20045;-65
2024/01/14 09:35:05;;;;;;;21.97;9.97;;;;;;;;;;5048150;28;20055;-65
2024/01/14 09:37:31;;;;;;;36.30;11.80;;;;;;;;;;5048836;28;20079;-65
2024/01/14 09:39:57;;;;;;;36.67;12.03;;;;;;;;;;5048299;28;20072;-65
2024/01/14 09:42:24;;;;;;;40.93;12.90;;;;;;;;;;5048460;28;20131;-65
2024/01/14 09:44:55;;;;;;;45.23;15.83;;;;;;;;;;5048452;28;20098;-65
2024/01/14 09:47:21;;;;;;;49.63;15.77;;;;;;;;;;5048053;28;20049;-65
2024/01/14 09:49:47;;;;;;;47.03;17.70;;;;;;;;;;5048497;28;20466;-65
2024/01/14 09:52:14;;;;;;;59.13;19.13;;;;;;;;;;5048546;28;20160;-65
2024/01/14 09:54:41;;;;;;;70.20;21.27;;;;;;;;;;5048304;28;20087;-65
2024/01/14 09:57:11;;;;;;;67.80;22.80;;;;;;;;;;5048471;28;20033;-65
2024/01/14 09:59:37;;;;;;;83.93;26.07;;;;;;;;;;5048137;28;20465;-65
2024/01/14 10:02:03;;;;;;;116.80;30.37;;;;;;;;;;5047972;28;20134;-65
2024/01/14 10:04:29;;;;;;;111.90;32.40;;;;;;;;;;5048487;28;20045;-65
2024/01/14 10:06:56;;;;;;;91.20;29.67;;;;;;;;;;5048007;28;20542;-65
2024/01/14 10:09:24;;;;;;;119.03;31.53;;;;;;;;;;5048587;28;20126;-65
2024/01/14 10:11:50;;;;;;;98.87;31.70;;;;;;;;;;5048005;28;20049;-65
2024/01/14 10:14:16;;;;;;;83.57;31.43;;;;;;;;;;5048646;28;20041;-65
2024/01/14 10:16:42;;;;;;;95.77;32.57;;;;;;;;;;5048134;28;20044;-65
2024/01/14 10:19:08;;;;;;;79.00;29.03;;;;;;;;;;5050753;28;20495;-65
2024/01/14 10:21:34;;;;;;;91.00;30.37;;;;;;;;;;5052307;28;20143;-65
2024/01/14 10:24:01;;;;;;;94.40;32.07;;;;;;;;;;5052124;28;20488;-64
2024/01/14 10:26:27;;;;;;;97.50;30.73;;;;;;;;;;5052241;28;20106;-65
2024/01/14 10:28:53;;;;;;;62.47;27.17;;;;;;;;;;5051596;28;20495;-65
2024/01/14 10:31:19;;;;;;;64.20;25.77;;;;;;;;;;5052158;28;20045;-65
2024/01/14 10:33:46;;;;;;;68.77;28.07;;;;;;;;;;5050750;28;20045;-65
2024/01/14 10:36:13;;;;;;;77.07;26.63;;;;;;;;;;5051715;28;20132;-65
2024/01/14 10:38:39;;;;;;;69.67;26.00;;;;;;;;;;5051784;28;20103;-65
2024/01/14 10:41:05;;;;;;;77.67;24.73;;;;;;;;;;5051525;28;20041;-65
2024/01/14 10:43:33;;;;;;;58.10;23.53;;;;;;;;;;5052411;28;20057;-65
2024/01/14 10:45:59;;;;;;;79.57;24.53;;;;;;;;;;5051675;28;20589;-65
2024/01/14 10:48:26;;;;;;;60.70;23.47;;;;;;;;;;5052030;28;20084;-65
2024/01/14 10:50:55;;;;;;;64.93;21.90;;;;;;;;;;5051408;28;20083;-65
2024/01/14 10:53:26;;;;;;;73.70;25.53;;;;;;;;;;5051336;28;20076;-65
2024/01/14 10:56:02;;;;;;;68.23;25.60;;;;;;;;;;5051449;28;20052;-65
2024/01/14 10:58:30;;;;;;;63.67;24.50;;;;;;;;;;5051633;28;20052;-65
2024/01/14 11:01:00;;;;;;;68.07;23.70;;;;;;;;;;5051708;28;20061;-65
2024/01/14 11:03:28;;;;;;;60.50;23.23;;;;;;;;;;5067238;28;20045;-65
2024/01/14 11:05:54;;;;;;;67.47;23.57;;;;;;;;;;5050570;28;20060;-65
2024/01/14 11:08:24;;;;;;;66.37;23.03;;;;;;;;;;5051790;28;20158;-65
2024/01/14 11:10:51;;;;;;;62.70;21.27;;;;;;;;;;5051618;28;20120;-65
2024/01/14 11:13:23;;;;;;;67.80;23.10;;;;;;;;;;5051268;28;20045;-65
2024/01/14 11:15:54;;;;;;;56.47;21.77;;;;;;;;;;5050902;28;20049;-65
2024/01/14 11:18:28;;;;;;;96.93;27.90;;;;;;;;;;5051623;28;20168;-65
2024/01/14 11:20:58;;;;;;;78.65;27.83;;;;;;;;;;5050904;28;20446;-65
2024/01/14 11:23:24;;;;;;;81.47;27.03;;;;;;;;;;5051688;28;20095;-65
2024/01/14 11:25:51;;;;;;;105.00;29.57;;;;;;;;;;5051031;28;20088;-65
2024/01/14 11:28:17;;;;;;;81.30;28.77;;;;;;;;;;5051056;28;20406;-65
2024/01/14 11:30:50;;;;;;;104.27;30.00;;;;;;;;;;5048500;28;20460;-66
2024/01/14 11:33:29;;;;;;;87.32;29.85;;;;;;;;;;5051026;28;20041;-65
2024/01/14 11:35:56;;;;;;;96.03;32.03;;;;;;;;;;5050554;28;20515;-66
2024/01/14 11:38:38;;;;;;;100.23;32.77;;;;;;;;;;5050847;28;20085;-65
2024/01/14 11:41:26;;;;;;;100.63;35.57;;;;;;;;;;5050948;28;20049;-65
2024/01/14 11:43:53;;;;;;;132.93;36.67;;;;;;;;;;5050694;28;20126;-65
2024/01/14 11:46:37;;;;;;;94.07;33.23;;;;;;;;;;5050678;28;20060;-65
2024/01/14 11:49:03;;;;;;;94.63;32.93;;;;;;;;;;5050480;28;20049;-65
2024/01/14 11:51:32;;;;;;;90.90;32.97;;;;;;;;;;5050217;28;20045;-65
2024/01/14 11:54:00;;;;;;;117.17;35.37;;;;;;;;;;5050653;28;20120;-66
2024/01/14 11:56:30;;;;;;;131.60;34.80;;;;;;;;;;5050647;28;20060;-65
2024/01/14 11:58:59;;;;;;;106.40;33.87;;;;;;;;;;5050001;28;20052;-65
2024/01/14 12:01:28;;;;;;;105.93;34.57;;;;;;;;;;5050058;28;20094;-65
2024/01/14 12:04:05;;;;;;;115.67;33.93;;;;;;;;;;5050517;28;20772;-65
2024/01/14 12:06:40;;;;;;;80.50;30.17;;;;;;;;;;5050234;28;20041;-65
2024/01/14 12:09:07;;;;;;;99.90;33.40;;;;;;;;;;5050318;28;20120;-65
2024/01/14 12:11:33;;;;;;;83.63;31.07;;;;;;;;;;5050428;28;20102;-65
2024/01/14 12:13:59;;;;;;;91.57;31.67;;;;;;;;;;5049883;28;20052;-65
2024/01/14 12:16:25;;;;;;;77.80;31.00;;;;;;;;;;5050189;28;20070;-65
2024/01/14 12:18:51;;;;;;;81.63;30.30;;;;;;;;;;5049940;28;20116;-65
2024/01/14 12:21:18;;;;;;;78.30;29.67;;;;;;;;;;5049023;28;20052;-65
2024/01/14 12:23:45;;;;;;;77.63;28.63;;;;;;;;;;5050156;28;20127;-65
2024/01/14 12:26:11;;;;;;;65.77;29.20;;;;;;;;;;5049840;28;20080;-65
2024/01/14 12:28:38;;;;;;;104.47;31.90;;;;;;;;;;5050026;28;20115;-65
2024/01/14 12:31:07;;;;;;;70.63;27.80;;;;;;;;;;5049484;28;20094;-65
2024/01/14 12:33:33;;;;;;;71.10;30.37;;;;;;;;;;5049418;28;20407;-65
2024/01/14 12:36:00;;;;;;;63.33;26.70;;;;;;;;;;5049801;28;20037;-65
2024/01/14 12:38:26;;;;;;;70.30;27.97;;;;;;;;;;5049747;28;20423;-65
2024/01/14 12:40:53;;;;;;;62.87;26.07;;;;;;;;;;5049595;28;20135;-65
2024/01/14 12:43:19;;;;;;;85.27;29.17;;;;;;;;;;5049865;28;20044;-65
2024/01/14 12:45:49;;;;;;;65.53;28.37;;;;;;;;;;5049163;28;20053;-65
2024/01/14 12:48:22;;;;;;;83.13;28.50;;;;;;;;;;5049456;28;20056;-65
2024/01/14 12:50:48;;;;;;;68.28;26.52;;;;;;;;;;5049197;28;20140;-65
2024/01/14 12:53:15;;;;;;;64.93;26.57;;;;;;;;;;5049451;28;20057;-65
2024/01/14 12:55:41;;;;;;;69.90;25.67;;;;;;;;;;5049654;28;20076;-65
2024/01/14 12:58:07;;;;;;;66.43;25.23;;;;;;;;;;5048741;28;20146;-65
2024/01/14 13:00:35;;;;;;;63.00;23.87;;;;;;;;;;5049503;28;20087;-65
2024/01/14 13:03:02;;;;;;;55.90;22.40;;;;;;;;;;5049194;28;20518;-65
2024/01/14 13:05:28;;;;;;;42.80;18.13;;;;;;;;;;5049471;28;20061;-65
2024/01/14 13:07:54;;;;;;;49.90;16.50;;;;;;;;;;5049556;28;20037;-65
2024/01/14 13:10:20;;;;;;;66.17;18.90;;;;;;;;;;5048558;28;20056;-65
2024/01/14 13:12:46;;;;;;;43.50;15.30;;;;;;;;;;5048785;28;20388;-65
2024/01/14 13:15:12;;;;;;;36.13;15.07;;;;;;;;;;5049457;28;20158;-64
2024/01/14 13:17:38;;;;;;;29.73;12.70;;;;;;;;;;5049080;28;20472;-65
2024/01/14 13:20:05;;;;;;;36.53;12.97;;;;;;;;;;5049214;28;20126;-65
2024/01/14 13:22:33;;;;;;;27.70;10.87;;;;;;;;;;5048347;28;20132;-65
2024/01/14 13:24:59;;;;;;;28.80;9.87;;;;;;;;;;5048925;28;20127;-65
2024/01/14 13:27:25;;;;;;;33.37;10.13;;;;;;;;;;5048406;28;20475;-65
2024/01/14 13:29:51;;;;;;;22.50;8.70;;;;;;;;;;5048741;28;20048;-65
2024/01/14 13:32:18;;;;;;;21.00;8.43;;;;;;;;;;5048915;28;20055;-65
2024/01/14 13:34:44;;;;;;;23.53;8.03;;;;;;;;;;5047343;28;20048;-65
2024/01/14 13:37:10;;;;;;;16.10;5.37;;;;;;;;;;5048168;28;20041;-65
2024/01/14 13:39:38;;;;;;;14.27;5.00;;;;;;;;;;5048841;28;20045;-65
2024/01/14 13:42:05;;;;;;;9.43;3.57;;;;;;;;;;5048389;28;20506;-65
2024/01/14 13:44:31;;;;;;;8.37;2.97;;;;;;;;;;5048831;28;20057;-65
2024/01/14 13:46:57;;;;;;;9.57;2.83;;;;;;;;;;5048019;28;20045;-65
2024/01/14 13:49:24;;;;;;;3.83;1.60;;;;;;;;;;5048624;28;20377;-65
2024/01/14 13:51:50;;;;;;;7.40;1.93;;;;;;;;;;5047878;28;20048;-65
2024/01/14 13:54:16;;;;;;;10.07;2.57;;;;;;;;;;5047887;28;20064;-65
2024/01/14 13:56:43;;;;;;;4.37;1.00;;;;;;;;;;5048314;28;20052;-65
2024/01/14 13:59:09;;;;;;;3.83;1.20;;;;;;;;;;5048317;28;20049;-65
2024/01/14 14:01:37;;;;;;;3.60;0.77;;;;;;;;;;5048578;28;20037;-65
2024/01/14 14:04:03;;;;;;;7.10;1.73;;;;;;;;;;5048238;28;20041;-65
2024/01/14 14:06:29;;;;;;;3.97;1.00;;;;;;;;;;5048291;28;20083;-65
2024/01/14 14:08:55;;;;;;;5.47;1.03;;;;;;;;;;5047837;28;20081;-65
2024/01/14 14:11:21;;;;;;;4.13;0.90;;;;;;;;;;5048591;28;20557;-66
2024/01/14 14:13:47;;;;;;;4.67;0.93;;;;;;;;;;5048560;28;20052;-66
2024/01/14 14:16:13;;;;;;;5.50;0.97;;;;;;;;;;5048005;28;20052;-66
2024/01/14 14:18:39;;;;;;;3.53;0.90;;;;;;;;;;5048398;28;20056;-65
2024/01/14 14:21:05;;;;;;;5.17;0.93;;;;;;;;;;5048102;28;20053;-65
2024/01/14 14:23:31;;;;;;;7.60;1.20;;;;;;;;;;5048051;28;20491;-65